Time;durP1;ratioP1;P1;durP2;ratioP2;P2;SDS_P1;SDS_P2;PMS_P1;PMS_P2;Temp;Humidity;BMP_temperature;BMP_pressure;BME280_temperature;BME280_humidity;BME280_pressure;Samples;Min_cycle;Max_cycle;Signal;HPM_P1;HPM_P2
2023/05/20 00:01:15;;;;;;;12.38;5.53;;;;;;;;;;5022351;28;20537;-74
2023/05/20 00:03:41;;;;;;;11.18;5.80;;;;;;;;;;5031740;28;20049;-74
2023/05/20 00:06:07;;;;;;;10.32;5.68;;;;;;;;;;5027941;28;20049;-71
2023/05/20 00:08:33;;;;;;;12.75;5.25;;;;;;;;;;5031413;28;20478;-71
2023/05/20 00:10:59;;;;;;;12.98;5.82;;;;;;;;;;5030186;28;20053;-71
2023/05/20 00:13:25;;;;;;;10.38;5.38;;;;;;;;;;5028972;28;20057;-72
2023/05/20 00:15:52;;;;;;;11.15;5.85;;;;;;;;;;5016662;28;20073;-71
2023/05/20 00:18:18;;;;;;;10.02;5.10;;;;;;;;;;5030890;28;20390;-72
2023/05/20 00:20:44;;;;;;;14.90;5.68;;;;;;;;;;5031656;28;20049;-71
2023/05/20 00:23:10;;;;;;;14.25;5.50;;;;;;;;;;5026674;28;20042;-71
2023/05/20 00:25:36;;;;;;;12.57;5.55;;;;;;;;;;5019128;28;20042;-71
2023/05/20 00:28:02;;;;;;;9.68;5.40;;;;;;;;;;5018932;28;20037;-72
2023/05/20 00:30:28;;;;;;;10.77;5.68;;;;;;;;;;5021685;28;20049;-73
2023/05/20 00:32:54;;;;;;;11.75;5.80;;;;;;;;;;5021724;28;20159;-72
2023/05/20 00:35:20;;;;;;;10.68;5.55;;;;;;;;;;5020509;28;20164;-72
2023/05/20 00:37:46;;;;;;;10.15;5.43;;;;;;;;;;5021191;28;20121;-72
2023/05/20 00:40:12;;;;;;;9.85;5.38;;;;;;;;;;5018489;28;20408;-72
2023/05/20 00:42:38;;;;;;;11.98;5.93;;;;;;;;;;5025987;28;20048;-72
2023/05/20 00:45:04;;;;;;;12.73;5.80;;;;;;;;;;5018692;28;20046;-71
2023/05/20 00:47:33;;;;;;;8.98;5.10;;;;;;;;;;5018417;28;20177;-72
2023/05/20 00:49:59;;;;;;;9.30;5.45;;;;;;;;;;5033363;28;20048;-72
2023/05/20 00:52:26;;;;;;;11.65;5.60;;;;;;;;;;5029549;28;20131;-72
2023/05/20 00:54:52;;;;;;;10.20;5.70;;;;;;;;;;5037092;28;20037;-72
2023/05/20 00:57:19;;;;;;;11.23;5.60;;;;;;;;;;5034038;28;20054;-73
2023/05/20 00:59:45;;;;;;;10.10;6.00;;;;;;;;;;5031534;28;20489;-72
2023/05/20 01:02:11;;;;;;;10.20;5.30;;;;;;;;;;5025179;28;20095;-71
2023/05/20 01:04:37;;;;;;;7.85;5.07;;;;;;;;;;5027459;28;20401;-72
2023/05/20 01:07:04;;;;;;;11.40;5.53;;;;;;;;;;5027512;28;20053;-71
2023/05/20 01:09:31;;;;;;;11.30;5.90;;;;;;;;;;5014854;28;20103;-72
2023/05/20 01:12:08;;;;;;;10.13;4.90;;;;;;;;;;5025872;28;20128;-72
2023/05/20 01:14:35;;;;;;;9.90;6.05;;;;;;;;;;5020565;28;20037;-72
2023/05/20 01:17:09;;;;;;;9.70;5.55;;;;;;;;;;5020774;28;20054;-71
2023/05/20 01:19:38;;;;;;;10.48;5.65;;;;;;;;;;5035906;28;20042;-72
2023/05/20 01:22:06;;;;;;;11.13;6.15;;;;;;;;;;5019071;28;20124;-72
2023/05/20 01:24:32;;;;;;;10.13;5.80;;;;;;;;;;5020097;28;20041;-71
2023/05/20 01:26:59;;;;;;;9.05;5.35;;;;;;;;;;5020825;28;20049;-72
2023/05/20 01:29:26;;;;;;;14.52;6.18;;;;;;;;;;5018124;28;20069;-72
2023/05/20 01:31:54;;;;;;;12.95;6.20;;;;;;;;;;5017702;28;20090;-73
2023/05/20 01:34:20;;;;;;;15.63;6.68;;;;;;;;;;5020043;28;20045;-72
2023/05/20 01:36:46;;;;;;;14.35;6.47;;;;;;;;;;5034711;28;20050;-72
2023/05/20 01:39:12;;;;;;;14.93;6.50;;;;;;;;;;5019565;28;20041;-72
2023/05/20 01:41:39;;;;;;;15.45;5.93;;;;;;;;;;5020068;28;20053;-71
2023/05/20 01:44:05;;;;;;;9.35;5.88;;;;;;;;;;5019231;28;20038;-72
2023/05/20 01:46:34;;;;;;;14.20;6.30;;;;;;;;;;5016711;28;20062;-72
2023/05/20 01:49:00;;;;;;;13.52;6.15;;;;;;;;;;5020688;28;20046;-71
2023/05/20 01:51:26;;;;;;;13.65;6.63;;;;;;;;;;5022491;28;20075;-72
2023/05/20 01:53:52;;;;;;;11.32;6.50;;;;;;;;;;5017273;28;20505;-72
2023/05/20 01:56:18;;;;;;;14.43;6.50;;;;;;;;;;5021938;28;20053;-72
2023/05/20 01:58:44;;;;;;;11.98;6.50;;;;;;;;;;5014346;28;20037;-72
2023/05/20 02:01:10;;;;;;;13.80;6.93;;;;;;;;;;5019427;28;20054;-71
2023/05/20 02:03:36;;;;;;;13.02;6.50;;;;;;;;;;5026014;28;21003;-71
2023/05/20 02:06:02;;;;;;;15.63;6.60;;;;;;;;;;5026029;28;20041;-71
2023/05/20 02:08:28;;;;;;;11.98;6.38;;;;;;;;;;5035483;28;20481;-71
2023/05/20 02:10:55;;;;;;;12.35;6.00;;;;;;;;;;5024699;28;20049;-72
2023/05/20 02:13:21;;;;;;;12.45;6.95;;;;;;;;;;5041268;28;20041;-72
2023/05/20 02:15:47;;;;;;;16.15;6.70;;;;;;;;;;5020664;28;20048;-71
2023/05/20 02:18:17;;;;;;;12.10;6.90;;;;;;;;;;5023253;28;20042;-72
2023/05/20 02:20:43;;;;;;;13.10;7.00;;;;;;;;;;5017715;28;20045;-72
2023/05/20 02:23:09;;;;;;;12.38;6.88;;;;;;;;;;5018642;28;20625;-71
2023/05/20 02:25:35;;;;;;;10.45;6.22;;;;;;;;;;5019092;28;20516;-72
2023/05/20 02:28:04;;;;;;;13.70;6.43;;;;;;;;;;5019958;28;20381;-72
2023/05/20 02:30:30;;;;;;;13.18;6.90;;;;;;;;;;5022552;28;20058;-72
2023/05/20 02:32:56;;;;;;;14.82;7.22;;;;;;;;;;5026329;28;20111;-72
2023/05/20 02:35:22;;;;;;;13.68;6.53;;;;;;;;;;5022450;28;20060;-73
2023/05/20 02:37:48;;;;;;;10.82;6.35;;;;;;;;;;5021955;28;20045;-72
2023/05/20 02:40:14;;;;;;;13.07;6.70;;;;;;;;;;5022940;28;20593;-72
2023/05/20 02:42:41;;;;;;;10.20;6.57;;;;;;;;;;5022961;28;20033;-72
2023/05/20 02:45:07;;;;;;;12.10;7.47;;;;;;;;;;5028297;28;20061;-72
2023/05/20 02:47:33;;;;;;;10.20;6.68;;;;;;;;;;5023227;28;20092;-72
2023/05/20 02:49:59;;;;;;;13.02;6.88;;;;;;;;;;5031205;28;20089;-72
2023/05/20 02:52:25;;;;;;;14.20;7.45;;;;;;;;;;5025211;28;20054;-72
2023/05/20 02:54:51;;;;;;;12.98;6.95;;;;;;;;;;5024910;28;20412;-72
2023/05/20 02:57:17;;;;;;;10.85;6.95;;;;;;;;;;5029740;28;20116;-72
2023/05/20 02:59:43;;;;;;;17.77;7.00;;;;;;;;;;5020326;28;20146;-72
2023/05/20 03:02:09;;;;;;;20.35;7.55;;;;;;;;;;5040780;28;20060;-72
2023/05/20 03:04:37;;;;;;;13.63;7.18;;;;;;;;;;5026703;28;20049;-71
2023/05/20 03:07:06;;;;;;;13.00;7.15;;;;;;;;;;5029626;28;20054;-71
2023/05/20 03:09:32;;;;;;;14.25;7.43;;;;;;;;;;5026919;28;20060;-72
2023/05/20 03:11:58;;;;;;;14.00;7.78;;;;;;;;;;5030561;28;20045;-72
2023/05/20 03:14:24;;;;;;;14.48;7.40;;;;;;;;;;5027212;28;20049;-72
2023/05/20 03:16:50;;;;;;;15.60;7.60;;;;;;;;;;5031487;28;20049;-71
2023/05/20 03:19:16;;;;;;;13.98;7.70;;;;;;;;;;5026904;28;20056;-72
2023/05/20 03:21:42;;;;;;;13.60;7.80;;;;;;;;;;5024018;28;20033;-71
2023/05/20 03:24:09;;;;;;;13.27;7.60;;;;;;;;;;5030198;28;20515;-71
2023/05/20 03:26:37;;;;;;;14.63;8.05;;;;;;;;;;5029688;28;20673;-72
2023/05/20 03:29:04;;;;;;;14.10;7.72;;;;;;;;;;5026127;28;20042;-72
2023/05/20 03:31:30;;;;;;;14.20;8.20;;;;;;;;;;5030163;28;20072;-72
2023/05/20 03:33:56;;;;;;;14.30;7.95;;;;;;;;;;5030731;28;20073;-72
2023/05/20 03:36:22;;;;;;;14.45;7.47;;;;;;;;;;5025452;28;20103;-72
2023/05/20 03:38:48;;;;;;;16.23;7.97;;;;;;;;;;5023073;28;20038;-71
2023/05/20 03:41:14;;;;;;;12.45;7.78;;;;;;;;;;5030261;28;20077;-72
2023/05/20 03:43:41;;;;;;;14.65;7.78;;;;;;;;;;5030458;28;20400;-71
2023/05/20 03:46:07;;;;;;;15.77;7.55;;;;;;;;;;5027264;28;20064;-72
2023/05/20 03:48:33;;;;;;;10.18;6.90;;;;;;;;;;5020891;28;20050;-72
2023/05/20 03:51:00;;;;;;;12.10;7.40;;;;;;;;;;5024122;28;20072;-72
2023/05/20 03:53:26;;;;;;;13.93;8.00;;;;;;;;;;5019900;28;20045;-72
2023/05/20 03:55:52;;;;;;;12.95;7.65;;;;;;;;;;5023842;28;20047;-72
2023/05/20 03:58:19;;;;;;;12.93;7.45;;;;;;;;;;5020954;28;20140;-72
2023/05/20 04:00:46;;;;;;;17.42;8.23;;;;;;;;;;5021764;28;20448;-72
2023/05/20 04:03:12;;;;;;;12.75;7.72;;;;;;;;;;5005069;28;20542;-72
2023/05/20 04:05:38;;;;;;;12.27;7.50;;;;;;;;;;5022221;28;20049;-72
2023/05/20 04:08:04;;;;;;;12.40;7.45;;;;;;;;;;5022401;28;20046;-72
2023/05/20 04:10:33;;;;;;;12.32;7.45;;;;;;;;;;5019924;28;20049;-72
2023/05/20 04:12:59;;;;;;;15.55;7.10;;;;;;;;;;5020780;28;20041;-72
2023/05/20 04:15:28;;;;;;;14.15;7.50;;;;;;;;;;5022730;28;20060;-72
2023/05/20 04:17:54;;;;;;;12.73;7.75;;;;;;;;;;5025798;28;20409;-72
2023/05/20 04:20:20;;;;;;;9.80;7.05;;;;;;;;;;5025535;28;20045;-72
2023/05/20 04:22:47;;;;;;;12.82;7.05;;;;;;;;;;5033981;28;20064;-72
2023/05/20 04:25:13;;;;;;;15.52;6.93;;;;;;;;;;5031692;28;20046;-72
2023/05/20 04:27:39;;;;;;;12.07;7.03;;;;;;;;;;5025711;28;20056;-72
2023/05/20 04:30:06;;;;;;;13.48;6.78;;;;;;;;;;5010249;28;20088;-71
2023/05/20 04:32:35;;;;;;;12.90;7.35;;;;;;;;;;5012645;28;20042;-71
2023/05/20 04:35:02;;;;;;;12.68;6.80;;;;;;;;;;5013658;28;20092;-71
2023/05/20 04:37:28;;;;;;;12.90;6.72;;;;;;;;;;5016944;28;20061;-72
2023/05/20 04:39:54;;;;;;;10.68;6.03;;;;;;;;;;5017565;28;20485;-72
2023/05/20 04:42:21;;;;;;;14.55;6.80;;;;;;;;;;5011543;28;20057;-72
2023/05/20 04:44:47;;;;;;;11.85;6.35;;;;;;;;;;5028952;28;20107;-71
2023/05/20 04:47:14;;;;;;;9.82;6.10;;;;;;;;;;5014900;28;20058;-72
2023/05/20 04:49:41;;;;;;;11.18;6.55;;;;;;;;;;5011247;28;20060;-72
2023/05/20 04:52:07;;;;;;;11.05;6.95;;;;;;;;;;5012573;28;20046;-71
2023/05/20 04:54:33;;;;;;;10.85;6.50;;;;;;;;;;5036117;28;20615;-72
2023/05/20 04:56:59;;;;;;;9.52;6.05;;;;;;;;;;5023018;28;20049;-72
2023/05/20 04:59:25;;;;;;;9.82;6.15;;;;;;;;;;5030041;28;20102;-72
2023/05/20 05:01:51;;;;;;;8.63;5.72;;;;;;;;;;5029161;28;20139;-72
2023/05/20 05:04:17;;;;;;;11.07;5.75;;;;;;;;;;5032153;28;20500;-72
2023/05/20 05:06:43;;;;;;;10.10;5.38;;;;;;;;;;5022002;28;20052;-72
2023/05/20 05:09:09;;;;;;;12.43;6.53;;;;;;;;;;5018928;28;20551;-72
2023/05/20 05:11:35;;;;;;;8.65;5.55;;;;;;;;;;5026173;28;20085;-72
2023/05/20 05:14:02;;;;;;;9.02;5.00;;;;;;;;;;5046349;28;20040;-71
2023/05/20 05:16:28;;;;;;;10.10;5.43;;;;;;;;;;5020006;28;20049;-72
2023/05/20 05:18:54;;;;;;;10.05;5.53;;;;;;;;;;5029760;28;20168;-72
2023/05/20 05:21:20;;;;;;;8.95;5.57;;;;;;;;;;5031387;28;20492;-72
2023/05/20 05:23:46;;;;;;;8.48;5.50;;;;;;;;;;5009913;28;20132;-72
2023/05/20 05:26:12;;;;;;;10.48;4.78;;;;;;;;;;5023509;28;20139;-72
2023/05/20 05:28:38;;;;;;;8.77;5.30;;;;;;;;;;5027478;28;20065;-72
2023/05/20 05:31:05;;;;;;;8.43;4.90;;;;;;;;;;5035993;28;20037;-72
2023/05/20 05:33:31;;;;;;;8.73;5.28;;;;;;;;;;5018772;28;20088;-72
2023/05/20 05:35:57;;;;;;;8.10;5.10;;;;;;;;;;5039342;28;20075;-72
2023/05/20 05:38:24;;;;;;;7.30;4.63;;;;;;;;;;5031982;28;20041;-72
2023/05/20 05:40:50;;;;;;;9.48;4.80;;;;;;;;;;5030736;28;20093;-72
2023/05/20 05:43:16;;;;;;;9.57;4.63;;;;;;;;;;5022700;28;20407;-72
2023/05/20 05:45:42;;;;;;;10.50;5.10;;;;;;;;;;5020289;28;20506;-72
2023/05/20 05:48:08;;;;;;;6.75;4.78;;;;;;;;;;5031350;28;20128;-72
2023/05/20 05:50:34;;;;;;;6.35;4.60;;;;;;;;;;5027331;28;20053;-71
2023/05/20 05:53:00;;;;;;;7.07;4.70;;;;;;;;;;5027276;28;20042;-72
2023/05/20 05:55:26;;;;;;;6.30;4.38;;;;;;;;;;5021079;28;20084;-72
2023/05/20 05:57:52;;;;;;;8.85;4.45;;;;;;;;;;5029340;28;20084;-72
2023/05/20 06:00:18;;;;;;;6.40;4.18;;;;;;;;;;5026606;28;20077;-72
2023/05/20 06:02:45;;;;;;;6.25;4.10;;;;;;;;;;5024785;28;20049;-72
2023/05/20 06:05:11;;;;;;;8.73;4.40;;;;;;;;;;5035419;28;20052;-71
2023/05/20 06:07:37;;;;;;;6.47;4.05;;;;;;;;;;5033174;28;20083;-71
2023/05/20 06:10:03;;;;;;;6.20;4.07;;;;;;;;;;5026007;28;20041;-72
2023/05/20 06:12:29;;;;;;;7.93;4.28;;;;;;;;;;5014504;28;20052;-72
2023/05/20 06:14:55;;;;;;;5.60;3.95;;;;;;;;;;5015692;28;20564;-72
2023/05/20 06:17:21;;;;;;;5.22;3.75;;;;;;;;;;5015554;28;20038;-73
2023/05/20 06:19:47;;;;;;;6.95;3.80;;;;;;;;;;5023149;28;20047;-72
2023/05/20 06:22:13;;;;;;;6.80;3.90;;;;;;;;;;5032313;28;20661;-72
2023/05/20 06:24:39;;;;;;;4.53;3.80;;;;;;;;;;5030616;28;20347;-72
2023/05/20 06:27:05;;;;;;;4.57;3.50;;;;;;;;;;5030971;28;20136;-72
2023/05/20 06:29:31;;;;;;;7.60;3.50;;;;;;;;;;5034166;28;20045;-72
2023/05/20 06:31:57;;;;;;;4.55;3.28;;;;;;;;;;5027658;28;20123;-72
2023/05/20 06:34:23;;;;;;;3.40;3.10;;;;;;;;;;5053572;28;20076;-72
2023/05/20 06:36:50;;;;;;;4.35;2.75;;;;;;;;;;5041420;28;20053;-72
2023/05/20 06:39:15;;;;;;;3.13;2.70;;;;;;;;;;5032663;28;20049;-73
2023/05/20 06:41:42;;;;;;;2.90;2.70;;;;;;;;;;5031852;28;20041;-72
2023/05/20 06:44:09;;;;;;;3.33;3.00;;;;;;;;;;5034852;28;20485;-72
2023/05/20 06:46:35;;;;;;;5.88;2.70;;;;;;;;;;5033782;28;20049;-72
2023/05/20 06:49:01;;;;;;;3.30;2.85;;;;;;;;;;5032938;28;20519;-72
2023/05/20 06:51:27;;;;;;;4.35;2.60;;;;;;;;;;5016964;28;20053;-72
2023/05/20 06:53:54;;;;;;;6.15;2.92;;;;;;;;;;5031199;28;20037;-72
2023/05/20 06:56:20;;;;;;;3.72;2.97;;;;;;;;;;5026282;28;20444;-72
2023/05/20 06:58:46;;;;;;;3.35;2.95;;;;;;;;;;5030056;28;20050;-72
2023/05/20 07:01:12;;;;;;;6.32;3.10;;;;;;;;;;5027622;28;20042;-72
2023/05/20 07:03:38;;;;;;;5.55;2.88;;;;;;;;;;5032317;28;20041;-72
2023/05/20 07:06:04;;;;;;;15.32;3.45;;;;;;;;;;5034028;28;20167;-72
2023/05/20 07:08:30;;;;;;;5.15;3.33;;;;;;;;;;5023448;28;20042;-71
2023/05/20 07:10:57;;;;;;;4.10;3.15;;;;;;;;;;5027650;28;20064;-72
2023/05/20 07:13:23;;;;;;;3.75;2.80;;;;;;;;;;5026141;28;20415;-72
2023/05/20 07:15:49;;;;;;;4.90;3.13;;;;;;;;;;5045908;28;20068;-72
2023/05/20 07:18:15;;;;;;;4.30;3.00;;;;;;;;;;5017700;28;20048;-72
2023/05/20 07:20:41;;;;;;;6.32;3.30;;;;;;;;;;5018247;28;20124;-73
2023/05/20 07:23:07;;;;;;;5.65;2.80;;;;;;;;;;5031152;28;20042;-72
2023/05/20 07:25:33;;;;;;;4.90;2.78;;;;;;;;;;5033816;28;20048;-72
2023/05/20 07:27:59;;;;;;;6.07;2.75;;;;;;;;;;5031905;28;20099;-72
2023/05/20 07:30:26;;;;;;;4.45;2.90;;;;;;;;;;5030916;28;20045;-72
2023/05/20 07:32:52;;;;;;;3.92;2.50;;;;;;;;;;5033386;28;20053;-72
2023/05/20 07:35:18;;;;;;;4.68;2.50;;;;;;;;;;5026132;28;20072;-73
2023/05/20 07:37:44;;;;;;;2.97;2.58;;;;;;;;;;5015925;28;20454;-72
2023/05/20 07:40:10;;;;;;;5.00;2.80;;;;;;;;;;5027233;28;20055;-72
2023/05/20 07:42:36;;;;;;;3.67;2.75;;;;;;;;;;5029213;28;20144;-72
2023/05/20 07:45:02;;;;;;;5.03;2.70;;;;;;;;;;5022219;28;20080;-72
2023/05/20 07:47:31;;;;;;;3.47;2.40;;;;;;;;;;5024888;28;20041;-72
2023/05/20 07:49:57;;;;;;;3.60;2.92;;;;;;;;;;5032345;28;20085;-72
2023/05/20 07:52:23;;;;;;;7.10;3.08;;;;;;;;;;5027332;28;20045;-73
2023/05/20 07:54:49;;;;;;;3.50;2.40;;;;;;;;;;5029851;28;20084;-73
2023/05/20 07:57:15;;;;;;;3.83;2.47;;;;;;;;;;5032943;28;20124;-73
2023/05/20 07:59:41;;;;;;;2.92;2.60;;;;;;;;;;5033659;28;20393;-74
2023/05/20 08:02:07;;;;;;;2.72;2.45;;;;;;;;;;5031512;28;20057;-73
2023/05/20 08:04:33;;;;;;;4.68;2.97;;;;;;;;;;5046023;28;20175;-73
2023/05/20 08:07:00;;;;;;;4.55;2.53;;;;;;;;;;5027851;28;20137;-74
2023/05/20 08:09:26;;;;;;;4.57;2.60;;;;;;;;;;5021307;28;20121;-74
2023/05/20 08:11:52;;;;;;;6.00;2.67;;;;;;;;;;5011428;28;20577;-73
2023/05/20 08:14:18;;;;;;;5.38;2.67;;;;;;;;;;5019914;28;20049;-73
2023/05/20 08:16:44;;;;;;;5.65;2.70;;;;;;;;;;5029980;28;20044;-73
2023/05/20 08:19:10;;;;;;;4.22;2.80;;;;;;;;;;5031137;28;20041;-73
2023/05/20 08:21:36;;;;;;;2.70;2.38;;;;;;;;;;5045645;28;20104;-73
2023/05/20 08:24:02;;;;;;;4.22;2.80;;;;;;;;;;5032133;28;20045;-73
2023/05/20 08:26:28;;;;;;;4.07;2.80;;;;;;;;;;5021991;28;20088;-74
2023/05/20 08:28:54;;;;;;;3.80;2.70;;;;;;;;;;5027384;28;20068;-74
2023/05/20 08:31:20;;;;;;;3.03;2.70;;;;;;;;;;5031304;28;20045;-73
2023/05/20 08:33:46;;;;;;;3.25;2.20;;;;;;;;;;5026118;28;20128;-74
2023/05/20 08:36:13;;;;;;;4.40;2.42;;;;;;;;;;5031304;28;20053;-74
2023/05/20 08:38:39;;;;;;;4.22;2.35;;;;;;;;;;5019827;28;20043;-74
2023/05/20 08:41:05;;;;;;;2.97;2.42;;;;;;;;;;5024347;28;20417;-75
2023/05/20 08:43:31;;;;;;;5.68;2.58;;;;;;;;;;5022401;28;20050;-74
2023/05/20 08:45:57;;;;;;;4.63;2.30;;;;;;;;;;5017732;28;20058;-75
2023/05/20 08:48:26;;;;;;;4.88;2.83;;;;;;;;;;5025685;28;20046;-75
2023/05/20 08:50:53;;;;;;;2.90;2.47;;;;;;;;;;5023076;28;20042;-75
2023/05/20 08:53:21;;;;;;;4.30;2.50;;;;;;;;;;5023161;28;20069;-75
2023/05/20 08:55:56;;;;;;;3.80;2.53;;;;;;;;;;5022110;28;20083;-75
2023/05/20 08:58:22;;;;;;;3.70;2.40;;;;;;;;;;5023433;28;20071;-75
2023/05/20 09:00:48;;;;;;;3.55;2.40;;;;;;;;;;5024556;28;20099;-75
2023/05/20 09:03:14;;;;;;;3.55;2.38;;;;;;;;;;5021222;28;20033;-74
2023/05/20 09:05:40;;;;;;;2.97;2.08;;;;;;;;;;5038702;28;20068;-74
2023/05/20 09:08:10;;;;;;;4.28;2.40;;;;;;;;;;5021099;28;20481;-74
2023/05/20 09:10:37;;;;;;;3.92;2.28;;;;;;;;;;5022540;28;20809;-74
2023/05/20 09:13:05;;;;;;;2.75;2.20;;;;;;;;;;5024722;28;20053;-73
2023/05/20 09:15:31;;;;;;;4.47;2.47;;;;;;;;;;5016006;28;20078;-74
2023/05/20 09:18:01;;;;;;;4.55;2.80;;;;;;;;;;5025776;28;20046;-73
2023/05/20 09:20:28;;;;;;;2.42;2.20;;;;;;;;;;5031730;28;20044;-74
2023/05/20 09:22:54;;;;;;;2.40;2.17;;;;;;;;;;5014500;28;20050;-74
2023/05/20 09:25:21;;;;;;;3.72;2.40;;;;;;;;;;5015949;28;20405;-74
2023/05/20 09:27:47;;;;;;;7.07;2.70;;;;;;;;;;5027997;28;20053;-74
2023/05/20 09:30:13;;;;;;;5.70;2.50;;;;;;;;;;5022488;28;20433;-73
2023/05/20 09:32:39;;;;;;;3.72;2.17;;;;;;;;;;5023226;28;20144;-74
2023/05/20 09:35:06;;;;;;;8.30;2.50;;;;;;;;;;5029182;28;20042;-74
2023/05/20 09:37:34;;;;;;;4.53;2.60;;;;;;;;;;5020980;28;20052;-73
2023/05/20 09:40:00;;;;;;;5.55;2.65;;;;;;;;;;5030165;28;20041;-73
2023/05/20 09:42:28;;;;;;;2.90;2.25;;;;;;;;;;5023785;28;20092;-74
2023/05/20 09:44:56;;;;;;;6.25;2.40;;;;;;;;;;5024336;28;20049;-74
2023/05/20 09:47:24;;;;;;;7.07;3.22;;;;;;;;;;5024914;28;20083;-74
2023/05/20 09:49:51;;;;;;;5.20;2.58;;;;;;;;;;5025829;28;20521;-74
2023/05/20 09:52:18;;;;;;;4.28;2.60;;;;;;;;;;5024851;28;20056;-74
2023/05/20 09:54:44;;;;;;;5.25;2.40;;;;;;;;;;5027458;28;20087;-74
2023/05/20 09:57:10;;;;;;;7.15;2.53;;;;;;;;;;5024465;28;20045;-74
2023/05/20 09:59:37;;;;;;;8.10;2.20;;;;;;;;;;5027161;28;20047;-72
2023/05/20 10:02:05;;;;;;;5.43;2.80;;;;;;;;;;5026415;28;20038;-74
2023/05/20 10:04:32;;;;;;;5.28;2.70;;;;;;;;;;5024651;28;20046;-74
2023/05/20 10:07:01;;;;;;;6.95;2.47;;;;;;;;;;5024597;28;20099;-74
2023/05/20 10:09:42;;;;;;;5.65;2.67;;;;;;;;;;5024097;28;20046;-74
2023/05/20 10:12:24;;;;;;;6.32;2.58;;;;;;;;;;5017844;28;20040;-73
2023/05/20 10:14:59;;;;;;;7.47;2.80;;;;;;;;;;5025404;28;20056;-74
2023/05/20 10:17:28;;;;;;;5.70;2.88;;;;;;;;;;5024075;28;20100;-75
2023/05/20 10:19:58;;;;;;;6.07;2.72;;;;;;;;;;5025495;28;20037;-77
2023/05/20 10:22:28;;;;;;;3.90;2.22;;;;;;;;;;5021672;28;20516;-74
2023/05/20 10:25:05;;;;;;;8.00;2.80;;;;;;;;;;5028407;28;20085;-75
2023/05/20 10:27:41;;;;;;;5.63;2.60;;;;;;;;;;5024899;28;20046;-74
2023/05/20 10:30:14;;;;;;;7.13;2.67;;;;;;;;;;5019557;28;20046;-74
2023/05/20 10:32:48;;;;;;;4.45;2.75;;;;;;;;;;5024253;28;20481;-74
2023/05/20 10:35:20;;;;;;;6.53;2.78;;;;;;;;;;5026843;28;20366;-74
2023/05/20 10:37:49;;;;;;;5.07;2.80;;;;;;;;;;5022221;28;20041;-75
2023/05/20 10:40:17;;;;;;;4.13;2.70;;;;;;;;;;5026437;28;20044;-74
2023/05/20 10:42:44;;;;;;;4.55;2.63;;;;;;;;;;5017431;28;20049;-75
2023/05/20 10:45:11;;;;;;;4.35;2.63;;;;;;;;;;5019483;28;20057;-75
2023/05/20 10:47:41;;;;;;;6.15;3.17;;;;;;;;;;5029470;28;20106;-75
2023/05/20 10:50:07;;;;;;;7.22;2.97;;;;;;;;;;5029761;28;20106;-75
2023/05/20 10:52:37;;;;;;;6.72;2.90;;;;;;;;;;5027815;28;20042;-74
2023/05/20 10:55:03;;;;;;;5.72;2.55;;;;;;;;;;5024471;28;20037;-75
2023/05/20 10:57:30;;;;;;;6.18;3.05;;;;;;;;;;5030629;28;20053;-75
2023/05/20 10:59:57;;;;;;;8.10;2.60;;;;;;;;;;5026854;28;20121;-75
2023/05/20 11:02:27;;;;;;;13.38;3.47;;;;;;;;;;5022693;28;20120;-75
2023/05/20 11:04:53;;;;;;;4.93;3.22;;;;;;;;;;5024264;28;20104;-75
2023/05/20 11:07:29;;;;;;;4.53;3.13;;;;;;;;;;5029010;28;20041;-75
2023/05/20 11:09:56;;;;;;;7.35;3.22;;;;;;;;;;5026043;28;20044;-75
2023/05/20 11:12:22;;;;;;;6.28;2.80;;;;;;;;;;5026697;28;20196;-77
2023/05/20 11:14:49;;;;;;;10.10;3.50;;;;;;;;;;5030275;28;20397;-75
2023/05/20 11:17:16;;;;;;;7.00;3.20;;;;;;;;;;5026257;28;20489;-76
2023/05/20 11:19:42;;;;;;;8.90;3.60;;;;;;;;;;5032041;28;20045;-76
2023/05/20 11:22:08;;;;;;;7.63;3.45;;;;;;;;;;5027347;28;20045;-75
2023/05/20 11:24:34;;;;;;;9.02;3.35;;;;;;;;;;5030960;28;20069;-76
2023/05/20 11:27:01;;;;;;;7.88;3.35;;;;;;;;;;5030195;28;20101;-75
2023/05/20 11:29:31;;;;;;;9.43;3.70;;;;;;;;;;5029699;28;20037;-75
2023/05/20 11:31:57;;;;;;;7.07;2.95;;;;;;;;;;5029809;28;20493;-74
2023/05/20 11:34:23;;;;;;;10.63;3.80;;;;;;;;;;5026551;28;20042;-75
2023/05/20 11:36:58;;;;;;;6.90;3.13;;;;;;;;;;5029731;28;20088;-76
2023/05/20 11:39:28;;;;;;;6.47;3.38;;;;;;;;;;5029103;28;20092;-76
2023/05/20 11:41:54;;;;;;;5.90;3.28;;;;;;;;;;5028518;28;20382;-75
2023/05/20 11:44:20;;;;;;;6.93;3.30;;;;;;;;;;5026538;28;20038;-76
2023/05/20 11:46:47;;;;;;;8.18;3.53;;;;;;;;;;5029247;28;20052;-76
2023/05/20 11:49:14;;;;;;;6.07;3.40;;;;;;;;;;5028059;28;20040;-76
2023/05/20 11:51:40;;;;;;;9.13;3.58;;;;;;;;;;5026092;28;20056;-75
2023/05/20 11:54:06;;;;;;;7.53;2.90;;;;;;;;;;5030347;28;20500;-75
2023/05/20 11:56:33;;;;;;;11.60;3.63;;;;;;;;;;5025892;28;20064;-76
2023/05/20 11:58:59;;;;;;;6.65;3.35;;;;;;;;;;5023997;28;20056;-76
2023/05/20 12:01:26;;;;;;;10.00;3.30;;;;;;;;;;5026781;28;20546;-76
2023/05/20 12:03:53;;;;;;;5.53;3.20;;;;;;;;;;5030047;28;20104;-75
2023/05/20 12:06:19;;;;;;;6.70;3.00;;;;;;;;;;5026356;28;20037;-75
2023/05/20 12:08:46;;;;;;;7.30;3.30;;;;;;;;;;5024907;28;20049;-76
2023/05/20 12:11:12;;;;;;;5.80;3.25;;;;;;;;;;5022169;28;20053;-76
2023/05/20 12:13:38;;;;;;;8.45;3.63;;;;;;;;;;5027046;28;20042;-77
2023/05/20 12:16:05;;;;;;;6.32;3.20;;;;;;;;;;5029578;28;20045;-75
2023/05/20 12:18:31;;;;;;;9.07;3.97;;;;;;;;;;5012410;28;20220;-75
2023/05/20 12:20:58;;;;;;;13.38;3.30;;;;;;;;;;5023527;28;20126;-83
2023/05/20 12:23:25;;;;;;;7.07;3.08;;;;;;;;;;5028753;28;20049;-75
2023/05/20 12:25:51;;;;;;;7.35;3.00;;;;;;;;;;5011470;28;20041;-73
2023/05/20 12:28:17;;;;;;;9.80;3.70;;;;;;;;;;5027568;28;20037;-75
2023/05/20 12:30:43;;;;;;;8.68;3.05;;;;;;;;;;5027505;28;20048;-78
2023/05/20 12:33:09;;;;;;;6.00;3.17;;;;;;;;;;5026634;28;20049;-78
2023/05/20 12:35:39;;;;;;;7.90;3.35;;;;;;;;;;5032157;28;20033;-76
2023/05/20 12:38:06;;;;;;;6.32;2.95;;;;;;;;;;5032109;28;20045;-80
2023/05/20 12:40:32;;;;;;;6.28;2.85;;;;;;;;;;5037264;28;20076;-77
2023/05/20 12:42:59;;;;;;;5.47;2.80;;;;;;;;;;5027158;28;20041;-77
2023/05/20 12:45:25;;;;;;;8.57;3.13;;;;;;;;;;5014189;28;20148;-77
2023/05/20 12:47:51;;;;;;;6.07;2.80;;;;;;;;;;5021681;28;20057;-74
2023/05/20 12:50:17;;;;;;;8.57;3.10;;;;;;;;;;5047303;28;20049;-75
2023/05/20 12:52:43;;;;;;;7.47;3.00;;;;;;;;;;5028379;28;20054;-74
2023/05/20 12:55:12;;;;;;;6.72;3.20;;;;;;;;;;5030176;28;20099;-75
2023/05/20 12:57:39;;;;;;;5.55;2.80;;;;;;;;;;5021477;28;20050;-75
2023/05/20 13:00:05;;;;;;;7.00;2.90;;;;;;;;;;5024342;28;20044;-75
2023/05/20 13:02:31;;;;;;;7.47;3.05;;;;;;;;;;5022935;28;20057;-77
2023/05/20 13:04:57;;;;;;;5.88;3.10;;;;;;;;;;5024533;28;20077;-76
2023/05/20 13:07:25;;;;;;;8.25;3.13;;;;;;;;;;5024906;28;20087;-76
2023/05/20 13:09:51;;;;;;;9.38;2.90;;;;;;;;;;5027404;28;20076;-75
2023/05/20 13:12:17;;;;;;;6.85;3.13;;;;;;;;;;5024767;28;20118;-78
2023/05/20 13:14:43;;;;;;;8.35;3.20;;;;;;;;;;5022169;28;20064;-78
2023/05/20 13:17:10;;;;;;;7.78;2.95;;;;;;;;;;5036716;28;20049;-76
2023/05/20 13:19:37;;;;;;;5.05;2.80;;;;;;;;;;5028513;28;20042;-76
2023/05/20 13:22:03;;;;;;;5.10;2.63;;;;;;;;;;5026232;28;20103;-76
2023/05/20 13:24:29;;;;;;;6.13;3.38;;;;;;;;;;5019862;28;20041;-77
2023/05/20 13:26:55;;;;;;;6.75;2.78;;;;;;;;;;5027208;28;20048;-75
2023/05/20 13:29:21;;;;;;;7.78;3.35;;;;;;;;;;5028855;28;20041;-75
2023/05/20 13:31:47;;;;;;;9.45;2.67;;;;;;;;;;5016679;28;20041;-74
2023/05/20 13:34:14;;;;;;;5.15;2.70;;;;;;;;;;5017379;28;20044;-75
2023/05/20 13:36:40;;;;;;;5.90;3.03;;;;;;;;;;5026673;28;20053;-74
2023/05/20 13:39:06;;;;;;;6.70;3.22;;;;;;;;;;5025352;28;20408;-75
2023/05/20 13:41:32;;;;;;;5.97;3.30;;;;;;;;;;5023188;28;20080;-75
2023/05/20 13:43:58;;;;;;;5.47;3.03;;;;;;;;;;5029315;28;20103;-77
2023/05/20 13:46:24;;;;;;;8.55;3.47;;;;;;;;;;5025717;28;20489;-76
2023/05/20 13:48:50;;;;;;;4.82;2.80;;;;;;;;;;5023014;28;20049;-75
2023/05/20 13:51:16;;;;;;;5.78;3.13;;;;;;;;;;5028229;28;20083;-76
2023/05/20 13:53:42;;;;;;;5.65;3.10;;;;;;;;;;5026289;28;20072;-75
2023/05/20 13:56:08;;;;;;;5.53;2.92;;;;;;;;;;5018897;28;20056;-75
2023/05/20 13:58:35;;;;;;;5.53;3.30;;;;;;;;;;5020859;28;20037;-75
2023/05/20 14:01:03;;;;;;;9.57;3.33;;;;;;;;;;5017165;28;20068;-75
2023/05/20 14:03:29;;;;;;;7.95;2.88;;;;;;;;;;5023522;28;20409;-74
2023/05/20 14:05:55;;;;;;;3.95;2.63;;;;;;;;;;5023449;28;20083;-75
2023/05/20 14:08:22;;;;;;;4.97;3.38;;;;;;;;;;5036474;28;20050;-76
2023/05/20 14:10:48;;;;;;;4.40;2.80;;;;;;;;;;5021932;28;20057;-75
2023/05/20 14:13:14;;;;;;;5.85;2.92;;;;;;;;;;5027709;28;20045;-75
2023/05/20 14:15:40;;;;;;;4.03;3.08;;;;;;;;;;5039135;28;20045;-75
2023/05/20 14:18:06;;;;;;;8.77;3.20;;;;;;;;;;5027485;28;20060;-73
2023/05/20 14:20:32;;;;;;;7.45;3.47;;;;;;;;;;5024433;28;20038;-73
2023/05/20 14:23:00;;;;;;;7.32;3.10;;;;;;;;;;5020447;28;20046;-74
2023/05/20 14:25:26;;;;;;;5.95;3.05;;;;;;;;;;5023963;28;20045;-75
2023/05/20 14:27:53;;;;;;;5.63;2.97;;;;;;;;;;5029731;28;20128;-75
2023/05/20 14:30:19;;;;;;;4.25;2.50;;;;;;;;;;5025966;28;20175;-75
2023/05/20 14:32:45;;;;;;;4.32;2.80;;;;;;;;;;5027516;28;20049;-75
2023/05/20 14:35:11;;;;;;;5.32;2.70;;;;;;;;;;5021957;28;20038;-75